Time;durP1;ratioP1;P1;durP2;ratioP2;P2;SDS_P1;SDS_P2;PMS_P1;PMS_P2;Temp;Humidity;BMP_temperature;BMP_pressure;BME280_temperature;BME280_humidity;BME280_pressure;Samples;Min_cycle;Max_cycle;Signal;HPM_P1;HPM_P2
2022/01/24 00:01:49;;;;;;;;;;;-1.70;99.90;;;;;;4979489;28;19922;-86
2022/01/24 00:04:14;;;;;;;;;;;-1.60;99.90;;;;;;4992447;28;19933;-86
2022/01/24 00:06:41;;;;;;;;;;;-1.60;99.90;;;;;;4979818;28;19921;-86
2022/01/24 00:09:07;;;;;;;;;;;-1.80;99.90;;;;;;4998627;28;19921;-87
2022/01/24 00:27:10;;;;;;;;;;;-1.80;99.90;;;;;;4993329;28;19956;-87
2022/01/24 00:29:36;;;;;;;;;;;-1.90;99.90;;;;;;5002481;28;19960;-87
2022/01/24 00:32:01;;;;;;;;;;;-2.00;99.90;;;;;;4997824;28;19946;-86
2022/01/24 00:34:28;;;;;;;;;;;-2.00;99.90;;;;;;4999955;28;19913;-88
2022/01/24 00:36:54;;;;;;;;;;;-2.00;99.90;;;;;;5001525;28;20449;-85
2022/01/24 00:39:20;;;;;;;;;;;-2.00;99.90;;;;;;5000963;28;20009;-85
2022/01/24 00:47:03;;;;;;;;;;;-1.90;99.90;;;;;;5001016;28;20024;-88
2022/01/24 00:54:44;;;;;;;;;;;-2.10;99.90;;;;;;4995741;28;19929;-86
2022/01/24 00:57:10;;;;;;;;;;;-2.10;99.90;;;;;;4981823;28;19941;-87
2022/01/24 00:59:36;;;;;;;;;;;-2.00;99.90;;;;;;4997675;28;19948;-87
2022/01/24 01:02:02;;;;;;;;;;;-2.00;99.90;;;;;;5001243;28;19929;-86
2022/01/24 01:04:37;;;;;;;;;;;-2.00;99.90;;;;;;4978277;28;19937;-87
2022/01/24 01:07:06;;;;;;;;;;;-2.00;99.90;;;;;;4995004;28;19964;-87
2022/01/24 01:20:34;;;;;;;;;;;-2.30;99.90;;;;;;4998186;28;19925;-86
2022/01/24 01:23:00;;;;;;;;;;;-2.20;99.90;;;;;;5002717;28;19944;-89
2022/01/24 01:25:25;;;;;;;;;;;-2.10;99.90;;;;;;4999501;28;20385;-87
2022/01/24 01:27:53;;;;;;;;;;;-2.00;99.90;;;;;;5000436;28;19984;-85
2022/01/24 01:30:23;;;;;;;;;;;-1.90;99.90;;;;;;4999293;28;19949;-86
2022/01/24 01:35:46;;;;;;;;;;;-1.90;99.90;;;;;;4998885;28;20299;-86
2022/01/24 01:57:12;;;;;;;;;;;-2.00;99.90;;;;;;5000195;28;19917;-88
2022/01/24 01:59:37;;;;;;;;;;;-2.00;99.90;;;;;;5000757;28;19948;-86
2022/01/24 02:02:03;;;;;;;;;;;-2.00;99.90;;;;;;4993181;28;19926;-87
2022/01/24 02:04:28;;;;;;;;;;;-2.00;99.90;;;;;;4984025;28;19932;-86
2022/01/24 02:06:54;;;;;;;;;;;-2.20;99.90;;;;;;5001048;28;19917;-87
2022/01/24 02:09:20;;;;;;;;;;;-2.20;99.90;;;;;;5001210;28;19926;-87
2022/01/24 02:11:47;;;;;;;;;;;-2.20;99.90;;;;;;5003489;28;19922;-86
2022/01/24 02:14:18;;;;;;;;;;;-2.10;99.90;;;;;;5002581;28;19937;-86
2022/01/24 02:16:52;;;;;;;;;;;-2.00;99.90;;;;;;5005377;28;19993;-86
2022/01/24 02:19:50;;;;;;;;;;;-2.00;99.90;;;;;;5003853;28;19921;-87
2022/01/24 02:25:00;;;;;;;;;;;-2.00;99.90;;;;;;5001338;28;20017;-86
2022/01/24 02:27:32;;;;;;;;;;;-2.10;99.90;;;;;;4985609;28;19975;-86
2022/01/24 02:30:24;;;;;;;;;;;-2.20;99.90;;;;;;5006138;28;19913;-86
2022/01/24 02:32:55;;;;;;;;;;;-2.10;99.90;;;;;;5003289;28;19917;-84
2022/01/24 02:35:20;;;;;;;;;;;-2.20;99.90;;;;;;5006654;28;19921;-88
2022/01/24 02:37:46;;;;;;;;;;;-2.20;99.90;;;;;;5011143;28;19922;-84
2022/01/24 02:40:15;;;;;;;;;;;-2.20;99.90;;;;;;5021751;28;19913;-84
2022/01/24 02:48:26;;;;;;;;;;;-2.10;99.90;;;;;;5000288;28;19928;-87
2022/01/24 02:53:24;;;;;;;;;;;-2.00;99.90;;;;;;5004245;28;19956;-87
2022/01/24 02:55:49;;;;;;;;;;;-2.00;99.90;;;;;;5001546;28;19942;-87
2022/01/24 02:58:16;;;;;;;;;;;-2.10;99.90;;;;;;4999774;28;19917;-87
2022/01/24 03:00:44;;;;;;;;;;;-2.00;99.90;;;;;;4985218;28;19975;-85
2022/01/24 03:03:10;;;;;;;;;;;-1.90;99.90;;;;;;5012886;28;19926;-87
2022/01/24 03:05:35;;;;;;;;;;;-1.80;99.90;;;;;;5021242;28;20013;-86
2022/01/24 03:08:01;;;;;;;;;;;-1.80;99.90;;;;;;4999522;28;19924;-86
2022/01/24 03:10:42;;;;;;;;;;;-1.80;99.90;;;;;;5003221;28;19940;-85
2022/01/24 03:15:43;;;;;;;;;;;-1.90;99.90;;;;;;5015681;28;19922;-87
2022/01/24 03:18:10;;;;;;;;;;;-1.90;99.90;;;;;;5018670;28;19980;-86
2022/01/24 03:20:37;;;;;;;;;;;-1.80;99.90;;;;;;4997228;28;19926;-86
2022/01/24 03:23:02;;;;;;;;;;;-1.70;99.90;;;;;;5015213;28;19922;-87
2022/01/24 03:25:28;;;;;;;;;;;-1.70;99.90;;;;;;5015602;28;19922;-86
2022/01/24 03:27:54;;;;;;;;;;;-1.60;99.90;;;;;;5017755;28;19914;-87
2022/01/24 03:30:19;;;;;;;;;;;-1.60;99.90;;;;;;5020796;28;19925;-85
2022/01/24 03:32:45;;;;;;;;;;;-1.70;99.90;;;;;;5018519;28;19900;-87
2022/01/24 03:35:10;;;;;;;;;;;-1.70;99.90;;;;;;4998281;28;19928;-86
2022/01/24 03:37:36;;;;;;;;;;;-1.80;99.90;;;;;;5019276;28;20001;-85
2022/01/24 03:40:02;;;;;;;;;;;-1.60;99.90;;;;;;5017834;28;19914;-87
2022/01/24 03:42:28;;;;;;;;;;;-1.50;99.90;;;;;;5015594;28;19930;-86
2022/01/24 03:44:58;;;;;;;;;;;-1.60;99.90;;;;;;5018269;28;19940;-84
2022/01/24 03:48:03;;;;;;;;;;;-1.60;99.90;;;;;;5016357;28;19949;-86
2022/01/24 03:50:17;;;;;;;;;;;-1.60;99.90;;;;;;5013016;28;19976;-86
2022/01/24 03:52:43;;;;;;;;;;;-1.70;99.90;;;;;;5017441;28;19922;-85
2022/01/24 03:55:09;;;;;;;;;;;-1.70;99.90;;;;;;5014562;28;19961;-87
2022/01/24 03:57:35;;;;;;;;;;;-1.80;99.90;;;;;;5014940;28;19964;-85
2022/01/24 04:00:00;;;;;;;;;;;-1.90;99.90;;;;;;5016632;28;19922;-87
2022/01/24 04:02:27;;;;;;;;;;;-2.00;99.90;;;;;;5005124;28;20330;-84
2022/01/24 04:04:53;;;;;;;;;;;-1.80;99.90;;;;;;4988816;28;19922;-84
2022/01/24 04:07:18;;;;;;;;;;;-1.70;99.90;;;;;;5015826;28;19960;-87
2022/01/24 04:09:44;;;;;;;;;;;-1.70;99.90;;;;;;5014637;28;19949;-87
2022/01/24 04:12:11;;;;;;;;;;;-1.70;99.90;;;;;;5013943;28;19941;-88
2022/01/24 04:22:09;;;;;;;;;;;-1.80;99.90;;;;;;4997148;28;19921;-86
2022/01/24 04:24:35;;;;;;;;;;;-1.90;99.90;;;;;;5017741;28;20083;-85
2022/01/24 04:27:00;;;;;;;;;;;-1.90;99.90;;;;;;5013013;28;19995;-86
2022/01/24 04:29:26;;;;;;;;;;;-2.00;99.90;;;;;;5019820;28;19917;-85
2022/01/24 04:31:51;;;;;;;;;;;-2.10;99.90;;;;;;5014568;28;19921;-87
2022/01/24 04:34:17;;;;;;;;;;;-2.10;99.90;;;;;;5007322;28;20013;-86
2022/01/24 04:36:43;;;;;;;;;;;-2.10;99.90;;;;;;5004532;28;20016;-86
2022/01/24 04:39:08;;;;;;;;;;;-1.90;99.90;;;;;;5001736;28;20332;-87
2022/01/24 04:41:40;;;;;;;;;;;-1.80;99.90;;;;;;4998762;28;19926;-86
2022/01/24 04:44:31;;;;;;;;;;;-1.90;99.90;;;;;;5000129;28;20401;-85
2022/01/24 04:52:20;;;;;;;;;;;-2.20;99.90;;;;;;4989979;28;19925;-87
2022/01/24 04:54:45;;;;;;;;;;;-2.30;99.90;;;;;;4997595;28;20020;-89
2022/01/24 04:57:15;;;;;;;;;;;-2.20;99.90;;;;;;5000543;28;20389;-85
2022/01/24 04:59:42;;;;;;;;;;;-2.10;99.90;;;;;;4978467;28;19914;-84
2022/01/24 05:02:08;;;;;;;;;;;-2.10;99.90;;;;;;4995853;28;19921;-86
2022/01/24 05:04:34;;;;;;;;;;;-2.20;99.90;;;;;;4999421;28;19979;-89
2022/01/24 05:06:59;;;;;;;;;;;-2.20;99.90;;;;;;4995830;28;19922;-86
2022/01/24 05:09:27;;;;;;;;;;;-2.30;99.90;;;;;;4992068;28;19952;-88
2022/01/24 05:12:04;;;;;;;;;;;-2.30;99.90;;;;;;4997076;28;19918;-89
2022/01/24 05:25:27;;;;;;;;;;;-2.30;99.90;;;;;;4996927;28;19944;-88
2022/01/24 05:27:53;;;;;;;;;;;-2.30;99.90;;;;;;4997298;28;19918;-88
2022/01/24 05:30:18;;;;;;;;;;;-2.20;99.90;;;;;;4987271;28;19914;-86
2022/01/24 05:32:44;;;;;;;;;;;-2.30;99.90;;;;;;4980641;28;20370;-86
2022/01/24 05:35:10;;;;;;;;;;;-2.40;99.90;;;;;;5002081;28;20373;-87
2022/01/24 05:37:36;;;;;;;;;;;-2.30;99.90;;;;;;4979825;28;20032;-85
2022/01/24 05:40:02;;;;;;;;;;;-2.30;99.90;;;;;;5008503;28;20285;-87
2022/01/24 05:42:29;;;;;;;;;;;-2.20;99.90;;;;;;4995535;28;19921;-87
2022/01/24 05:44:54;;;;;;;;;;;-2.10;99.90;;;;;;5001534;28;19940;-88
2022/01/24 05:47:20;;;;;;;;;;;-2.20;99.90;;;;;;4984349;28;19924;-86
2022/01/24 05:49:45;;;;;;;;;;;-2.20;99.90;;;;;;4987514;28;20026;-84
2022/01/24 05:52:11;;;;;;;;;;;-2.20;99.90;;;;;;5005540;28;19921;-86
2022/01/24 05:54:37;;;;;;;;;;;-2.30;99.90;;;;;;4999462;28;19991;-88
2022/01/24 05:57:03;;;;;;;;;;;-2.30;99.90;;;;;;4998096;28;19926;-87
2022/01/24 05:59:29;;;;;;;;;;;-2.30;99.90;;;;;;4997162;28;19928;-86
2022/01/24 06:01:54;;;;;;;;;;;-2.20;99.90;;;;;;4997785;28;20739;-85
2022/01/24 06:04:20;;;;;;;;;;;-2.30;99.90;;;;;;4979890;28;20405;-87
2022/01/24 06:06:46;;;;;;;;;;;-2.30;99.90;;;;;;4973195;28;20385;-85
2022/01/24 06:09:11;;;;;;;;;;;-2.40;99.90;;;;;;5000227;28;19921;-88
2022/01/24 06:11:37;;;;;;;;;;;-2.40;99.90;;;;;;4981101;28;20300;-87
2022/01/24 06:14:03;;;;;;;;;;;-2.40;99.90;;;;;;4988324;28;20403;-87
2022/01/24 06:16:29;;;;;;;;;;;-2.30;99.90;;;;;;5006150;28;19917;-87
2022/01/24 06:18:55;;;;;;;;;;;-2.20;99.90;;;;;;5001659;28;20013;-87
2022/01/24 06:21:20;;;;;;;;;;;-2.10;99.90;;;;;;5001678;28;20025;-86
2022/01/24 06:23:46;;;;;;;;;;;-2.10;99.90;;;;;;4996197;28;20076;-87
2022/01/24 06:26:11;;;;;;;;;;;-2.30;99.90;;;;;;4984958;28;20301;-86
2022/01/24 06:28:37;;;;;;;;;;;-2.30;99.90;;;;;;4971540;28;19914;-88
2022/01/24 06:31:03;;;;;;;;;;;-2.40;99.90;;;;;;5006199;28;19928;-89
2022/01/24 06:33:28;;;;;;;;;;;-2.50;99.90;;;;;;4999133;28;19921;-85
2022/01/24 06:35:54;;;;;;;;;;;-2.30;99.90;;;;;;4998943;28;19924;-88
2022/01/24 06:38:19;;;;;;;;;;;-2.20;99.90;;;;;;4981750;28;19929;-86
2022/01/24 06:40:45;;;;;;;;;;;-2.30;99.90;;;;;;4993676;28;20476;-87
2022/01/24 06:43:10;;;;;;;;;;;-2.30;99.90;;;;;;4999447;28;19922;-84
2022/01/24 06:45:36;;;;;;;;;;;-2.30;99.90;;;;;;4981981;28;19917;-88
2022/01/24 06:48:01;;;;;;;;;;;-2.40;99.90;;;;;;4998348;28;19917;-86
2022/01/24 06:50:27;;;;;;;;;;;-2.50;99.90;;;;;;4984386;28;19968;-85
2022/01/24 06:52:52;;;;;;;;;;;-2.50;99.90;;;;;;5001099;28;19922;-87
2022/01/24 06:55:18;;;;;;;;;;;-2.40;99.90;;;;;;4981268;28;20308;-87
2022/01/24 06:57:44;;;;;;;;;;;-2.30;99.90;;;;;;5000267;28;20676;-86
2022/01/24 07:00:09;;;;;;;;;;;-2.10;99.90;;;;;;4998919;28;19917;-85
2022/01/24 07:02:35;;;;;;;;;;;-2.10;99.90;;;;;;5005612;28;19926;-88
2022/01/24 07:05:00;;;;;;;;;;;-2.10;99.90;;;;;;4962910;28;20394;-87
2022/01/24 07:07:26;;;;;;;;;;;-2.10;99.90;;;;;;4961035;28;20382;-86
2022/01/24 07:09:52;;;;;;;;;;;-2.10;99.90;;;;;;4963848;28;19918;-86
2022/01/24 07:12:17;;;;;;;;;;;-2.10;99.90;;;;;;4956353;28;20259;-89
2022/01/24 07:14:44;;;;;;;;;;;-2.00;99.90;;;;;;4959612;28;19918;-87
2022/01/24 07:17:48;;;;;;;;;;;-1.90;99.90;;;;;;4967291;28;19954;-87
2022/01/24 07:19:55;;;;;;;;;;;-1.90;99.90;;;;;;4959312;28;19933;-87
2022/01/24 07:22:21;;;;;;;;;;;-1.80;99.90;;;;;;4965524;28;19922;-88
2022/01/24 07:24:46;;;;;;;;;;;-1.80;99.90;;;;;;4971811;28;19918;-88
2022/01/24 07:27:13;;;;;;;;;;;-1.70;99.90;;;;;;4975383;28;19941;-86
2022/01/24 07:29:38;;;;;;;;;;;-1.60;99.90;;;;;;4990853;28;19919;-85
2022/01/24 07:32:04;;;;;;;;;;;-1.50;99.90;;;;;;4974333;28;19918;-88
2022/01/24 07:34:29;;;;;;;;;;;-1.40;99.90;;;;;;4976352;28;19922;-88
2022/01/24 07:36:55;;;;;;;;;;;-1.30;99.90;;;;;;4964756;28;19925;-88
2022/01/24 07:39:21;;;;;;;;;;;-1.20;99.90;;;;;;4961217;28;20429;-85
2022/01/24 07:41:48;;;;;;;;;;;-1.20;99.90;;;;;;4963201;28;19930;-84
2022/01/24 07:44:14;;;;;;;;;;;-1.10;99.90;;;;;;4968604;28;19994;-86
2022/01/24 07:46:40;;;;;;;;;;;-1.10;99.90;;;;;;4957978;28;20008;-87
2022/01/24 07:49:08;;;;;;;;;;;-1.10;99.90;;;;;;4960154;28;20022;-86
2022/01/24 07:51:35;;;;;;;;;;;-1.10;99.90;;;;;;4959317;28;19961;-87
2022/01/24 07:54:00;;;;;;;;;;;-1.10;99.90;;;;;;4963397;28;20009;-84
2022/01/24 07:56:26;;;;;;;;;;;-1.00;99.90;;;;;;4977334;28;20450;-85
2022/01/24 07:58:52;;;;;;;;;;;-0.90;99.90;;;;;;4959045;28;20390;-87
2022/01/24 08:01:18;;;;;;;;;;;-1.00;99.90;;;;;;4959655;28;20392;-88
2022/01/24 08:03:44;;;;;;;;;;;-1.00;99.90;;;;;;4968557;28;19926;-87
2022/01/24 08:06:09;;;;;;;;;;;-1.00;99.90;;;;;;4999133;28;19921;-87
2022/01/24 08:08:35;;;;;;;;;;;-0.80;99.90;;;;;;4983983;28;20326;-86
2022/01/24 08:11:00;;;;;;;;;;;-0.70;99.90;;;;;;4983667;28;19917;-88
2022/01/24 08:13:26;;;;;;;;;;;-0.70;99.90;;;;;;4984128;28;20245;-87
2022/01/24 08:15:52;;;;;;;;;;;-0.70;99.90;;;;;;5002831;28;19921;-86
2022/01/24 08:18:17;;;;;;;;;;;-0.60;99.90;;;;;;4981643;28;19918;-87
2022/01/24 08:20:43;;;;;;;;;;;-0.60;99.90;;;;;;5008538;28;20389;-88
2022/01/24 08:23:09;;;;;;;;;;;-0.60;99.90;;;;;;4980756;28;19932;-88
2022/01/24 08:25:34;;;;;;;;;;;-0.60;99.90;;;;;;4990272;28;20012;-85
2022/01/24 08:28:00;;;;;;;;;;;-0.60;99.90;;;;;;5004134;28;20016;-87
2022/01/24 08:30:26;;;;;;;;;;;-0.70;99.90;;;;;;4980603;28;19967;-88
2022/01/24 08:32:52;;;;;;;;;;;-0.60;99.90;;;;;;5004691;28;19947;-86
2022/01/24 08:35:19;;;;;;;;;;;-0.50;99.90;;;;;;5006676;28;19918;-85
2022/01/24 08:37:44;;;;;;;;;;;-0.40;99.90;;;;;;4994216;28;19944;-87
2022/01/24 08:40:12;;;;;;;;;;;-0.30;99.90;;;;;;4998551;28;20393;-86
2022/01/24 08:42:53;;;;;;;;;;;-0.20;99.90;;;;;;4986132;28;20501;-87
2022/01/24 08:48:03;;;;;;;;;;;-0.20;99.90;;;;;;5000337;28;20400;-86
2022/01/24 08:50:29;;;;;;;;;;;-0.40;99.90;;;;;;4990550;28;19922;-86
2022/01/24 08:52:59;;;;;;;;;;;-0.10;99.90;;;;;;5001257;28;20337;-87
2022/01/24 08:55:28;;;;;;;;;;;0.00;99.90;;;;;;4998284;28;20034;-86
2022/01/24 08:57:55;;;;;;;;;;;0.30;99.90;;;;;;4983277;28;19924;-88
2022/01/24 09:00:21;;;;;;;;;;;0.30;99.90;;;;;;4981303;28;20469;-87
2022/01/24 09:02:46;;;;;;;;;;;0.30;99.90;;;;;;4995873;28;19973;-84
2022/01/24 09:05:12;;;;;;;;;;;0.30;99.90;;;;;;4998214;28;20251;-86
2022/01/24 09:07:37;;;;;;;;;;;0.00;99.90;;;;;;4994543;28;19917;-87
2022/01/24 09:10:07;;;;;;;;;;;0.10;99.90;;;;;;4991344;28;20005;-88
2022/01/24 09:12:33;;;;;;;;;;;0.00;99.90;;;;;;4987668;28;19917;-85
2022/01/24 09:14:58;;;;;;;;;;;-0.10;99.90;;;;;;5003690;28;19913;-87
2022/01/24 09:17:24;;;;;;;;;;;0.10;99.90;;;;;;4984713;28;19924;-87
2022/01/24 09:19:50;;;;;;;;;;;0.20;99.90;;;;;;5000954;28;20436;-87
2022/01/24 09:22:15;;;;;;;;;;;0.30;99.90;;;;;;5005043;28;19926;-87
2022/01/24 09:24:41;;;;;;;;;;;0.30;99.90;;;;;;4980982;28;19922;-87
2022/01/24 09:27:07;;;;;;;;;;;0.30;99.90;;;;;;4996424;28;20282;-85
2022/01/24 09:29:32;;;;;;;;;;;0.30;99.90;;;;;;5003941;28;19925;-87
2022/01/24 09:31:58;;;;;;;;;;;0.40;99.90;;;;;;5000430;28;19918;-86
2022/01/24 09:34:23;;;;;;;;;;;0.50;99.90;;;;;;4985803;28;19921;-83
2022/01/24 09:36:51;;;;;;;;;;;0.40;99.90;;;;;;4996093;28;20296;-80
2022/01/24 09:39:17;;;;;;;;;;;0.50;99.90;;;;;;4997804;28;19924;-80
2022/01/24 09:41:43;;;;;;;;;;;0.70;99.90;;;;;;4997245;28;19925;-81
2022/01/24 09:44:08;;;;;;;;;;;0.70;99.90;;;;;;4994531;28;19921;-80
2022/01/24 09:46:35;;;;;;;;;;;0.80;99.90;;;;;;4996724;28;19917;-81
2022/01/24 09:49:00;;;;;;;;;;;1.00;99.90;;;;;;4979221;28;19918;-77
2022/01/24 09:51:26;;;;;;;;;;;0.90;99.90;;;;;;4998685;28;19933;-77
2022/01/24 09:53:51;;;;;;;;;;;0.80;99.90;;;;;;4997706;28;20000;-78
2022/01/24 09:56:17;;;;;;;;;;;0.90;99.90;;;;;;4996281;28;19929;-76
2022/01/24 09:58:43;;;;;;;;;;;1.00;99.90;;;;;;4996577;28;20397;-76
2022/01/24 10:01:09;;;;;;;;;;;1.20;99.90;;;;;;4999305;28;19922;-76
2022/01/24 10:03:35;;;;;;;;;;;1.30;99.90;;;;;;4975641;28;20433;-79
2022/01/24 10:06:01;;;;;;;;;;;1.40;99.90;;;;;;4985630;28;19924;-78
2022/01/24 10:08:29;;;;;;;;;;;1.50;99.90;;;;;;4997412;28;19917;-77
2022/01/24 10:10:56;;;;;;;;;;;1.40;99.90;;;;;;4996159;28;19921;-76
2022/01/24 10:19:02;;;;;;;;;;;1.20;99.90;;;;;;4995912;28;19917;-88
2022/01/24 10:21:28;;;;;;;;;;;1.50;99.90;;;;;;4998667;28;19921;-87
2022/01/24 10:23:55;;;;;;;;;;;1.80;99.90;;;;;;4982031;28;19929;-86
2022/01/24 10:26:20;;;;;;;;;;;2.10;99.90;;;;;;4985839;28;20000;-88
2022/01/24 10:28:46;;;;;;;;;;;2.30;99.90;;;;;;4996492;28;20040;-87
2022/01/24 10:31:12;;;;;;;;;;;2.20;99.90;;;;;;4985987;28;20408;-86
2022/01/24 10:33:52;;;;;;;;;;;2.20;99.90;;;;;;4981799;28;19913;-88
2022/01/24 10:36:25;;;;;;;;;;;2.20;99.90;;;;;;5001627;28;19964;-86
2022/01/24 10:38:55;;;;;;;;;;;2.00;99.90;;;;;;4985385;28;19976;-87
2022/01/24 10:41:38;;;;;;;;;;;2.50;99.90;;;;;;4978799;28;19953;-89
2022/01/24 10:44:04;;;;;;;;;;;2.70;99.90;;;;;;5004474;28;19922;-86
2022/01/24 10:46:29;;;;;;;;;;;2.90;99.90;;;;;;5001244;28;19918;-86
2022/01/24 10:49:01;;;;;;;;;;;3.10;99.90;;;;;;4982480;28;19922;-87
2022/01/24 10:51:26;;;;;;;;;;;2.90;99.90;;;;;;5000867;28;19917;-86
2022/01/24 10:53:54;;;;;;;;;;;2.90;99.90;;;;;;5014637;28;19916;-84
2022/01/24 10:56:33;;;;;;;;;;;2.70;99.90;;;;;;5027766;28;19945;-88
2022/01/24 10:59:11;;;;;;;;;;;2.60;99.90;;;;;;5013830;28;20060;-86
2022/01/24 11:01:37;;;;;;;;;;;2.40;99.90;;;;;;4996262;28;19929;-86
2022/01/24 11:04:04;;;;;;;;;;;2.60;99.90;;;;;;5008145;28;20184;-89
2022/01/24 11:06:32;;;;;;;;;;;2.60;99.90;;;;;;4985191;28;19917;-86
2022/01/24 11:09:24;;;;;;;;;;;2.90;99.90;;;;;;5011910;28;19929;-86
2022/01/24 11:11:50;;;;;;;;;;;3.10;99.90;;;;;;4991646;28;19940;-87
2022/01/24 11:14:19;;;;;;;;;;;3.20;99.90;;;;;;5000542;28;19928;-88
2022/01/24 11:16:46;;;;;;;;;;;3.40;99.90;;;;;;4998658;28;19940;-88
2022/01/24 11:19:18;;;;;;;;;;;3.50;99.90;;;;;;4999291;28;20065;-86
2022/01/24 11:21:45;;;;;;;;;;;3.60;99.90;;;;;;5003920;28;19928;-83
2022/01/24 11:24:16;;;;;;;;;;;3.50;99.90;;;;;;4988754;28;19918;-86
2022/01/24 11:26:42;;;;;;;;;;;3.60;99.90;;;;;;4979233;28;19913;-85
2022/01/24 11:29:08;;;;;;;;;;;3.80;99.90;;;;;;5001374;28;19976;-86
2022/01/24 11:31:59;;;;;;;;;;;3.90;99.90;;;;;;4996683;28;20412;-86
2022/01/24 11:34:31;;;;;;;;;;;3.80;99.90;;;;;;4983881;28;20008;-88
2022/01/24 11:36:57;;;;;;;;;;;4.30;99.90;;;;;;4995634;28;19925;-88
2022/01/24 11:39:22;;;;;;;;;;;4.20;99.90;;;;;;4983795;28;19921;-90
2022/01/24 11:41:49;;;;;;;;;;;4.30;99.90;;;;;;5004129;28;20396;-89
2022/01/24 11:44:17;;;;;;;;;;;4.20;99.90;;;;;;4986500;28;20004;-88
2022/01/24 11:46:55;;;;;;;;;;;4.30;99.90;;;;;;4980445;28;20060;-87
2022/01/24 11:49:36;;;;;;;;;;;4.20;99.90;;;;;;5004289;28;19976;-88
2022/01/24 11:52:10;;;;;;;;;;;4.20;99.90;;;;;;4998595;28;19914;-87
2022/01/24 11:54:47;;;;;;;;;;;4.40;99.90;;;;;;4999984;28;20423;-87
2022/01/24 11:57:31;;;;;;;;;;;4.60;99.90;;;;;;4994569;28;19921;-90
2022/01/24 12:00:06;;;;;;;;;;;5.00;99.90;;;;;;4998608;28;19925;-87
2022/01/24 12:02:38;;;;;;;;;;;5.20;98.60;;;;;;4999544;28;19933;-86
2022/01/24 12:05:13;;;;;;;;;;;4.70;99.40;;;;;;4998622;28;20398;-87
2022/01/24 12:07:51;;;;;;;;;;;4.90;98.90;;;;;;4981961;28;19913;-86
2022/01/24 12:10:32;;;;;;;;;;;5.10;99.90;;;;;;5001196;28;19922;-86
2022/01/24 12:13:00;;;;;;;;;;;5.00;97.40;;;;;;4994045;28;19921;-88
2022/01/24 12:15:41;;;;;;;;;;;5.40;95.70;;;;;;5004693;28;20588;-87
2022/01/24 12:18:06;;;;;;;;;;;5.10;97.60;;;;;;5003719;28;19918;-90
2022/01/24 12:20:35;;;;;;;;;;;4.80;99.50;;;;;;4988861;28;20285;-86
2022/01/24 12:23:16;;;;;;;;;;;5.40;96.40;;;;;;5006025;28;19963;-87
2022/01/24 12:25:47;;;;;;;;;;;5.30;95.70;;;;;;5001821;28;19917;-88
2022/01/24 12:28:17;;;;;;;;;;;5.40;96.10;;;;;;4991504;28;19917;-88
2022/01/24 12:31:01;;;;;;;;;;;5.20;96.30;;;;;;5002130;28;20023;-86
2022/01/24 12:33:36;;;;;;;;;;;5.00;95.40;;;;;;4989475;28;19917;-88
2022/01/24 12:36:04;;;;;;;;;;;5.00;96.40;;;;;;5008017;28;19941;-86
2022/01/24 12:38:46;;;;;;;;;;;4.70;98.00;;;;;;4989154;28;20396;-90
2022/01/24 12:41:15;;;;;;;;;;;4.40;99.90;;;;;;5011957;28;20366;-89
2022/01/24 12:43:54;;;;;;;;;;;4.70;98.50;;;;;;5003854;28;19924;-88
2022/01/24 12:46:22;;;;;;;;;;;4.50;98.60;;;;;;5002962;28;19917;-88
2022/01/24 12:48:49;;;;;;;;;;;4.30;99.50;;;;;;5003395;28;19949;-88
2022/01/24 12:51:16;;;;;;;;;;;3.90;99.90;;;;;;4995753;28;19922;-88
2022/01/24 12:53:42;;;;;;;;;;;3.90;99.90;;;;;;5002675;28;20690;-89
2022/01/24 12:56:07;;;;;;;;;;;3.90;99.90;;;;;;4989661;28;19914;-88
2022/01/24 12:58:38;;;;;;;;;;;4.00;99.90;;;;;;4999836;28;19918;-88
2022/01/24 13:01:22;;;;;;;;;;;3.90;99.90;;;;;;4989095;28;19982;-87
2022/01/24 13:03:48;;;;;;;;;;;3.90;99.90;;;;;;4999811;28;19930;-87
2022/01/24 13:06:15;;;;;;;;;;;4.00;99.90;;;;;;5000155;28;19918;-87
2022/01/24 13:08:50;;;;;;;;;;;4.10;99.90;;;;;;4988294;28;19972;-87
2022/01/24 13:11:16;;;;;;;;;;;4.10;99.90;;;;;;5004694;28;19995;-88
2022/01/24 13:13:57;;;;;;;;;;;4.20;99.90;;;;;;5002690;28;19921;-88
2022/01/24 13:22:15;;;;;;;;;;;3.30;99.90;;;;;;5000199;28;19971;-87
2022/01/24 13:24:59;;;;;;;;;;;3.50;99.90;;;;;;5001182;28;19918;-88
2022/01/24 13:27:35;;;;;;;;;;;3.60;99.90;;;;;;4984591;28;19924;-87
2022/01/24 13:30:01;;;;;;;;;;;3.50;99.90;;;;;;5002967;28;19917;-76
2022/01/24 13:33:00;;;;;;;;;;;3.40;99.90;;;;;;5002637;28;20286;-88
2022/01/24 13:35:29;;;;;;;;;;;3.30;99.90;;;;;;4976214;28;19921;-87
2022/01/24 13:37:56;;;;;;;;;;;3.20;99.90;;;;;;5003567;28;19914;-88
2022/01/24 13:40:35;;;;;;;;;;;3.30;99.90;;;;;;4961803;28;20056;-87
2022/01/24 13:43:01;;;;;;;;;;;3.20;99.90;;;;;;4999764;28;20481;-90
2022/01/24 13:45:27;;;;;;;;;;;3.00;99.90;;;;;;4997686;28;19918;-87
2022/01/24 13:47:59;;;;;;;;;;;2.90;99.90;;;;;;4989150;28;19922;-88
2022/01/24 13:50:25;;;;;;;;;;;2.90;99.90;;;;;;4989626;28;19921;-79
2022/01/24 13:52:53;;;;;;;;;;;2.90;99.90;;;;;;4988775;28;19941;-80
2022/01/24 13:55:19;;;;;;;;;;;3.10;99.90;;;;;;4995213;28;19913;-80
2022/01/24 13:57:54;;;;;;;;;;;3.10;99.90;;;;;;4992320;28;19961;-81
2022/01/24 14:00:27;;;;;;;;;;;3.00;99.90;;;;;;4999595;28;19914;-80
2022/01/24 14:03:10;;;;;;;;;;;3.10;99.90;;;;;;4976009;28;19925;-80
2022/01/24 14:05:36;;;;;;;;;;;3.00;99.90;;;;;;4995797;28;19930;-80
2022/01/24 14:08:11;;;;;;;;;;;3.00;99.90;;;;;;4982785;28;20017;-81
2022/01/24 14:10:37;;;;;;;;;;;3.10;99.90;;;;;;5002534;28;19996;-80
2022/01/24 14:13:04;;;;;;;;;;;3.10;99.90;;;;;;4986393;28;19926;-82
2022/01/24 14:20:40;;;;;;;;;;;3.10;99.90;;;;;;5007708;28;19981;-81
2022/01/24 14:23:18;;;;;;;;;;;3.10;99.90;;;;;;5003405;28;20041;-81
2022/01/24 14:25:44;;;;;;;;;;;3.10;99.90;;;;;;5001542;28;19921;-82
2022/01/24 14:28:10;;;;;;;;;;;2.90;99.90;;;;;;4987647;28;20498;-80
2022/01/24 14:30:46;;;;;;;;;;;3.00;99.90;;;;;;5018412;28;19981;-79
2022/01/24 14:33:22;;;;;;;;;;;3.10;99.90;;;;;;5026063;28;19913;-81
2022/01/24 14:35:56;;;;;;;;;;;3.10;99.90;;;;;;4993947;28;20004;-79
2022/01/24 14:38:27;;;;;;;;;;;3.10;99.90;;;;;;4997365;28;20389;-81
2022/01/24 14:40:54;;;;;;;;;;;3.30;99.90;;;;;;4999935;28;20012;-80
2022/01/24 14:46:07;;;;;;;;;;;3.40;99.90;;;;;;4999918;28;19921;-80
2022/01/24 14:48:53;;;;;;;;;;;3.50;99.90;;;;;;5007080;28;19918;-81
2022/01/24 14:51:23;;;;;;;;;;;3.50;99.90;;;;;;4995586;28;19980;-81
2022/01/24 14:53:49;;;;;;;;;;;3.30;99.90;;;;;;4980971;28;19918;-80
2022/01/24 14:56:16;;;;;;;;;;;3.30;99.90;;;;;;5007462;28;19918;-88
2022/01/24 14:58:42;;;;;;;;;;;3.30;99.90;;;;;;5020314;28;19952;-87
2022/01/24 15:01:08;;;;;;;;;;;3.20;99.90;;;;;;5006186;28;19925;-87
2022/01/24 15:03:34;;;;;;;;;;;3.10;99.90;;;;;;5022176;28;19941;-87
2022/01/24 15:06:00;;;;;;;;;;;3.00;99.90;;;;;;5000687;28;19960;-89
2022/01/24 15:08:26;;;;;;;;;;;2.70;99.90;;;;;;4991680;28;19984;-88
2022/01/24 15:10:52;;;;;;;;;;;2.70;99.90;;;;;;5003857;28;20378;-87
2022/01/24 15:13:21;;;;;;;;;;;2.70;99.90;;;;;;5003980;28;19920;-88
2022/01/24 15:15:55;;;;;;;;;;;2.60;99.90;;;;;;5003952;28;19918;-87
2022/01/24 15:24:00;;;;;;;;;;;2.50;99.90;;;;;;5001907;28;20288;-87
2022/01/24 15:26:25;;;;;;;;;;;2.50;99.90;;;;;;5007206;28;19972;-89
2022/01/24 15:28:51;;;;;;;;;;;2.30;99.90;;;;;;5003868;28;19922;-88
2022/01/24 15:31:16;;;;;;;;;;;2.30;99.90;;;;;;5006216;28;20008;-88
2022/01/24 15:33:42;;;;;;;;;;;2.20;99.90;;;;;;5005327;28;20274;-87
2022/01/24 15:36:08;;;;;;;;;;;2.10;99.90;;;;;;5010546;28;19924;-87
2022/01/24 15:38:33;;;;;;;;;;;2.00;99.90;;;;;;5002598;28;19928;-88
2022/01/24 15:40:59;;;;;;;;;;;2.00;99.90;;;;;;5002508;28;20015;-89
2022/01/24 15:43:39;;;;;;;;;;;1.90;99.90;;;;;;4998097;28;19925;-89
2022/01/24 15:48:42;;;;;;;;;;;1.70;99.90;;;;;;5002666;28;19937;-88
2022/01/24 15:51:12;;;;;;;;;;;1.60;99.90;;;;;;5003475;28;19922;-89
2022/01/24 15:53:38;;;;;;;;;;;1.40;99.90;;;;;;4994857;28;20389;-86
2022/01/24 15:57:39;;;;;;;;;;;1.20;99.90;;;;;;4980448;28;19926;-88
2022/01/24 15:59:05;;;;;;;;;;;1.10;99.90;;;;;;4996367;28;19918;-86
2022/01/24 16:01:33;;;;;;;;;;;1.00;99.90;;;;;;4989212;28;19928;-87
2022/01/24 16:03:59;;;;;;;;;;;0.90;99.90;;;;;;4991897;28;20209;-86
2022/01/24 16:06:25;;;;;;;;;;;0.80;99.90;;;;;;5001810;28;20391;-87
2022/01/24 16:08:51;;;;;;;;;;;0.70;99.90;;;;;;5001512;28;19924;-87
2022/01/24 16:11:18;;;;;;;;;;;0.60;99.90;;;;;;4997387;28;19921;-87
2022/01/24 16:13:44;;;;;;;;;;;0.60;99.90;;;;;;5001894;28;19929;-86
2022/01/24 16:16:11;;;;;;;;;;;0.50;99.90;;;;;;4975164;28;19922;-88
2022/01/24 16:18:39;;;;;;;;;;;0.40;99.90;;;;;;4997063;28;20099;-89
2022/01/24 16:21:25;;;;;;;;;;;0.40;99.90;;;;;;4999869;28;19976;-85
2022/01/24 16:26:35;;;;;;;;;;;0.30;99.90;;;;;;4995396;28;20302;-86
2022/01/24 16:29:00;;;;;;;;;;;0.20;99.90;;;;;;4998788;28;19917;-87
2022/01/24 16:31:26;;;;;;;;;;;0.10;99.90;;;;;;5000583;28;19929;-86
2022/01/24 16:33:52;;;;;;;;;;;0.00;99.90;;;;;;4990155;28;20393;-88
2022/01/24 16:36:17;;;;;;;;;;;0.00;99.90;;;;;;4980367;28;19925;-87
2022/01/24 16:38:44;;;;;;;;;;;-0.10;99.90;;;;;;4982176;28;19917;-85
2022/01/24 16:41:21;;;;;;;;;;;-0.10;99.90;;;;;;4985798;28;20286;-87